Saint Meinrad, Indiana
Current Conditions -  °F | °C
As of 8:35 AM on Monday 20 Oct 2014 (Local Time) from KHNB Reporting Station
Broken Clouds Broken Clouds  
Wind Chill: 52°   Ceiling: 4100
Heat Index: 52°   Visibility: 10mi
Dew Point: 46°   Wind: 8mph
Humidity: 82%   Direction: 210°SSW
Pressure: 30.02"   Gusts: NA
Location:  38.17°N, 86.81°W
Report Text: KHNB 201335Z AUTO 21007KT 10SM BKN041 BKN048 BKN110 11/08 A3002 RMK AO1
Loading
Personal Weather Stations






























Interactive Weather Map
Tropical Storm Tracking
New forecast layout! Learn more

10-Day Weather Forecast

Advertisements
Track Severe Weather on mobile